Sunflower Hakata — JL6711 — position and weather

sailwx.info

Track history (hours):
 
Tides and Currents Weather Stations Pressure Air Temp Water Temp Dewpoint Dewpoint Depression Visibility Wind Speed Wind Dir Waves Ship Positions

Sunflower Hakata

Last reported at 2014-Jul-29 04:29 UTC. Time now 2014-Jul-29 04:41 UTC.
Position N 35°37' E 139°48'.

Length 167 m; draft 6.5 m.

Type: Cargo ship. MMSI: 431501764.

Date/timePositionNaut miles runAvg speedWind from/ knotsBaromVisibWave heightAir tempDewpointWater temp
2014-Jul-29 04:29N 35°37' E 139°48'0 0.0
2014-Jul-29 03:32N 35°37' E 139°48'0 0.0
2014-Jul-29 02:32N 35°37' E 139°48'0 0.0
2014-Jul-29 01:32N 35°37' E 139°48'0 0.0
2014-Jul-29 00:29N 35°37' E 139°48'0 0.0
2014-Jul-28 23:32N 35°37' E 139°48'0 0.2
2014-Jul-28 22:32N 35°37' E 139°48'0 0.0
2014-Jul-28 21:29N 35°37' E 139°48'0 0.0
2014-Jul-28 20:29N 35°37' E 139°48'0 0.0
2014-Jul-28 19:32N 35°37' E 139°48'0 0.0
2014-Jul-28 18:29N 35°37' E 139°48'0 0.0
2014-Jul-28 17:32N 35°37' E 139°48'0 0.0
2014-Jul-28 16:32N 35°37' E 139°48'0 0.0
2014-Jul-28 15:32N 35°37' E 139°48'0 0.0
2014-Jul-28 14:29N 35°37' E 139°48'0 0.0
2014-Jul-28 13:29N 35°37' E 139°48'0 0.0
2014-Jul-28 12:29N 35°37' E 139°48'0 0.0
2014-Jul-28 11:32N 35°37' E 139°48'0 0.0
2014-Jul-28 10:29N 35°37' E 139°48'0 0.0
2014-Jul-28 09:32N 35°37' E 139°48'0 0.0
2014-Jul-28 08:29N 35°37' E 139°48'0 0.0
2014-Jul-28 07:29N 35°37' E 139°48'0 0.0
2014-Jul-28 06:32N 35°37' E 139°48'0 0.0
2014-Jul-28 05:29N 35°37' E 139°48'0 0.0
2014-Jul-28 04:29N 35°37' E 139°48'0 0.0
2014-Jul-28 03:29N 35°37' E 139°48'0 0.0
2014-Jul-28 02:32N 35°37' E 139°48'0 0.0
2014-Jul-28 01:32N 35°37' E 139°48'0 0.0
2014-Jul-28 00:29N 35°37' E 139°48'0 0.0
2014-Jul-27 23:32N 35°37' E 139°48'0 0.0
2014-Jul-27 22:29N 35°37' E 139°48'0 0.0
2014-Jul-27 21:34N 35°37' E 139°48'0 0.0
2014-Jul-27 20:34N 35°37' E 139°48'7 7.1
2014-Jul-27 19:33N 35°31' E 139°52'1414.3
2014-Jul-27 18:33N 35°18' E 139°45'1515.3
2014-Jul-27 17:33N 35°03' E 139°39'2121.4
2014-Jul-27 16:33N 34°50' E 139°19'22018.3
2014-Jul-27 04:33N 34°02' E 134°59'2323.3
2014-Jul-27 03:33N 34°25' E 135°00'1211.9
2014-Jul-27 02:33N 34°34' E 134°51'9511.7
2014-Jul-26 18:27N 34°05' E 133°01'1210.0
2014-Jul-26 17:15N 34°02' E 132°47'1921.2
2014-Jul-26 16:22N 33°49' E 132°31'10618.2
2014-Jul-26 10:33N 33°56' E 130°24'1817.6
2014-Jul-26 09:33N 33°38' E 130°20'4 3.7
2014-Jul-26 08:33N 33°38' E 130°24'0 0.0
2014-Jul-26 07:33N 33°38' E 130°24'0 0.0
2014-Jul-26 06:32N 33°38' E 130°24'0 0.0
2014-Jul-26 05:33N 33°38' E 130°24'0 0.0
2014-Jul-26 04:33N 33°38' E 130°24'0 0.0
2014-Jul-26 03:33N 33°38' E 130°24'0 0.0
2014-Jul-26 02:32N 33°38' E 130°24'0 0.0
2014-Jul-26 01:33N 33°38' E 130°24'0 0.0
2014-Jul-26 00:33N 33°38' E 130°24'0 0.0
2014-Jul-25 23:33N 33°38' E 130°24'0 0.0
2014-Jul-25 22:32N 33°38' E 130°24'0 0.0
2014-Jul-25 21:32N 33°38' E 130°24'0 0.0
2014-Jul-25 20:32N 33°38' E 130°24'8 7.7
2014-Jul-25 19:34N 33°41' E 130°16'2019.1
2014-Jul-25 18:31N 33°58' E 130°28'39116.3
2014-Jul-24 18:33N 34°23' E 138°21'4019.8
2014-Jul-24 16:32N 34°39' E 139°05'2220.1
2014-Jul-24 15:26N 34°55' E 139°24'1820.7
2014-Jul-24 14:34N 35°05' E 139°42'1414.1
2014-Jul-24 13:33N 35°20' E 139°43'1817.7
2014-Jul-24 12:33N 35°36' E 139°50'2 1.9
2014-Jul-24 11:33N 35°37' E 139°48'0 0.0
2014-Jul-24 10:33N 35°37' E 139°48'0 0.0
2014-Jul-24 09:33N 35°37' E 139°48'0 0.0
2014-Jul-24 08:33N 35°37' E 139°48'0 0.0
2014-Jul-24 07:33N 35°37' E 139°48'0 0.0
2014-Jul-24 06:21N 35°37' E 139°48'0 0.0
2014-Jul-24 05:33N 35°37' E 139°48'0 0.0
2014-Jul-24 04:27N 35°37' E 139°48'0 0.0
2014-Jul-24 03:33N 35°37' E 139°48'0 0.0
2014-Jul-24 02:33N 35°37' E 139°48'0 0.0
2014-Jul-24 01:27N 35°37' E 139°48'0 0.0
2014-Jul-24 00:33N 35°37' E 139°48'0 0.0
2014-Jul-23 23:33N 35°37' E 139°48'0 0.0
2014-Jul-23 22:33N 35°37' E 139°48'0 0.0
2014-Jul-23 21:33N 35°37' E 139°48'0 0.0
2014-Jul-23 20:33N 35°37' E 139°48'6 6.4
2014-Jul-23 19:34N 35°32' E 139°52'1514.8
2014-Jul-23 18:33N 35°18' E 139°45'1514.7
2014-Jul-23 17:33N 35°03' E 139°44'2120.9
2014-Jul-23 16:33N 34°51' E 139°24'6220.0
2014-Jul-23 13:27N 34°18' E 138°19'16718.4
2014-Jul-23 04:22N 33°53' E 134°60'1620.2
2014-Jul-23 03:33N 34°10' E 134°58'2120.9
2014-Jul-23 02:33N 34°30' E 135°02'1515.2
2014-Jul-23 01:33N 34°34' E 134°44'10012.2
2014-Jul-22 17:19N 34°03' E 132°48'1621.1
2014-Jul-22 16:33N 33°51' E 132°35'11118.5
2014-Jul-22 10:33N 33°52' E 130°21'1514.8
2014-Jul-22 09:32N 33°37' E 130°24'0 0.5
2014-Jul-22 08:33N 33°38' E 130°24'0 0.0
2014-Jul-22 07:33N 33°38' E 130°24'0 0.0
2014-Jul-22 06:33N 33°38' E 130°24'0 0.0
2014-Jul-22 05:31N 33°38' E 130°24'0 0.0
2014-Jul-22 04:31N 33°38' E 130°24'0 0.0
2014-Jul-22 03:31N 33°38' E 130°24'0 0.0
2014-Jul-22 02:31N 33°38' E 130°24'0 0.0
2014-Jul-22 01:31N 33°38' E 130°24'0 0.0
2014-Jul-22 00:31N 33°38' E 130°24'0 0.0
2014-Jul-21 23:31N 33°38' E 130°24'0 0.1
2014-Jul-21 22:31N 33°37' E 130°24'0 0.0
2014-Jul-21 21:31N 33°37' E 130°24'0 0.0
2014-Jul-21 20:31N 33°37' E 130°24'0 0.0
2014-Jul-21 20:16N 33°37' E 130°24'0 0.0
2014-Jul-21 19:31N 33°37' E 130°24'0 0.0
2014-Jul-21 18:31N 33°37' E 130°24'0 0.0
2014-Jul-21 17:32N 33°37' E 130°24'0 0.0
2014-Jul-21 16:31N 33°37' E 130°24'0 0.0
2014-Jul-21 15:31N 33°37' E 130°24'0 0.0
2014-Jul-21 14:31N 33°37' E 130°24'0 0.0
2014-Jul-21 13:32N 33°37' E 130°24'0 0.0
2014-Jul-21 12:31N 33°37' E 130°24'0 0.0
2014-Jul-21 11:31N 33°37' E 130°24'0 0.0
2014-Jul-21 10:28N 33°37' E 130°24'0 0.0
2014-Jul-21 09:31N 33°37' E 130°24'0 0.0
2014-Jul-21 08:28N 33°37' E 130°24'0 0.0
2014-Jul-21 07:31N 33°37' E 130°24'0 0.0
2014-Jul-21 06:31N 33°37' E 130°24'0 0.0
2014-Jul-21 05:31N 33°37' E 130°24'0 0.0
2014-Jul-21 04:31N 33°37' E 130°24'0 0.0
2014-Jul-21 03:31N 33°37' E 130°24'0 0.0
2014-Jul-21 02:31N 33°37' E 130°24'0 0.0
2014-Jul-21 01:31N 33°37' E 130°24'0 0.0
2014-Jul-21 00:28N 33°37' E 130°24'0 0.0
2014-Jul-20 23:31N 33°37' E 130°24'0 0.0
2014-Jul-20 22:31N 33°37' E 130°24'0 0.0
2014-Jul-20 21:33N 33°37' E 130°24'0 0.0
2014-Jul-20 20:32N 33°37' E 130°24'8 7.9
2014-Jul-20 19:33N 33°41' E 130°16'2018.7
2014-Jul-20 18:29N 33°59' E 130°28'1819.9
2014-Jul-20 17:33N 34°02' E 130°50'37416.0
2014-Jul-19 18:14N 34°23' E 138°21'5118.7
2014-Jul-19 15:30N 34°48' E 139°15'1718.3
2014-Jul-19 14:33N 34°59' E 139°31'1918.8
2014-Jul-19 13:33N 35°14' E 139°46'1414.2
2014-Jul-19 12:33N 35°28' E 139°48'9 9.4
2014-Jul-19 11:33N 35°37' E 139°48'0 0.0
2014-Jul-19 10:34N 35°37' E 139°48'0 0.0
2014-Jul-19 09:33N 35°37' E 139°48'0 0.0
2014-Jul-19 08:24N 35°37' E 139°48'0 0.0
2014-Jul-19 07:27N 35°37' E 139°48'0 0.0
2014-Jul-19 06:30N 35°37' E 139°48'0 0.0
2014-Jul-19 05:33N 35°37' E 139°48'0 0.0
2014-Jul-19 04:33N 35°37' E 139°48'  
Track history (hours):
 
Tides and Currents Weather Stations Pressure Air Temp Water Temp Dewpoint Dewpoint Depression Visibility Wind Speed Wind Dir Waves Ship Positions

Sunflower Hakata

Last reported at 2014-Jul-29 04:29 UTC. Time now 2014-Jul-29 04:41 UTC.
Position N 35°37' E 139°48'.

Length 167 m; draft 6.5 m.

Type: Cargo ship. MMSI: 431501764.

Date/timePositionNaut miles runAvg speedWind from/ knotsBaromVisibWave heightAir tempDewpointWater temp
2014-Jul-29 04:29N 35°37' E 139°48'0 0.0
2014-Jul-29 03:32N 35°37' E 139°48'0 0.0
2014-Jul-29 02:32N 35°37' E 139°48'0 0.0
2014-Jul-29 01:32N 35°37' E 139°48'0 0.0
2014-Jul-29 00:29N 35°37' E 139°48'0 0.0
2014-Jul-28 23:32N 35°37' E 139°48'0 0.2
2014-Jul-28 22:32N 35°37' E 139°48'0 0.0
2014-Jul-28 21:29N 35°37' E 139°48'0 0.0
2014-Jul-28 20:29N 35°37' E 139°48'0 0.0
2014-Jul-28 19:32N 35°37' E 139°48'0 0.0
2014-Jul-28 18:29N 35°37' E 139°48'0 0.0
2014-Jul-28 17:32N 35°37' E 139°48'0 0.0
2014-Jul-28 16:32N 35°37' E 139°48'0 0.0
2014-Jul-28 15:32N 35°37' E 139°48'0 0.0
2014-Jul-28 14:29N 35°37' E 139°48'0 0.0
2014-Jul-28 13:29N 35°37' E 139°48'0 0.0
2014-Jul-28 12:29N 35°37' E 139°48'0 0.0
2014-Jul-28 11:32N 35°37' E 139°48'0 0.0
2014-Jul-28 10:29N 35°37' E 139°48'0 0.0
2014-Jul-28 09:32N 35°37' E 139°48'0 0.0
2014-Jul-28 08:29N 35°37' E 139°48'0 0.0
2014-Jul-28 07:29N 35°37' E 139°48'0 0.0
2014-Jul-28 06:32N 35°37' E 139°48'0 0.0
2014-Jul-28 05:29N 35°37' E 139°48'0 0.0
2014-Jul-28 04:29N 35°37' E 139°48'0 0.0
2014-Jul-28 03:29N 35°37' E 139°48'0 0.0
2014-Jul-28 02:32N 35°37' E 139°48'0 0.0
2014-Jul-28 01:32N 35°37' E 139°48'0 0.0
2014-Jul-28 00:29N 35°37' E 139°48'0 0.0
2014-Jul-27 23:32N 35°37' E 139°48'0 0.0
2014-Jul-27 22:29N 35°37' E 139°48'0 0.0
2014-Jul-27 21:34N 35°37' E 139°48'0 0.0
2014-Jul-27 20:34N 35°37' E 139°48'7 7.1
2014-Jul-27 19:33N 35°31' E 139°52'1414.3
2014-Jul-27 18:33N 35°18' E 139°45'1515.3
2014-Jul-27 17:33N 35°03' E 139°39'2121.4
2014-Jul-27 16:33N 34°50' E 139°19'22018.3
2014-Jul-27 04:33N 34°02' E 134°59'2323.3
2014-Jul-27 03:33N 34°25' E 135°00'1211.9
2014-Jul-27 02:33N 34°34' E 134°51'9511.7
2014-Jul-26 18:27N 34°05' E 133°01'1210.0
2014-Jul-26 17:15N 34°02' E 132°47'1921.2
2014-Jul-26 16:22N 33°49' E 132°31'10618.2
2014-Jul-26 10:33N 33°56' E 130°24'1817.6
2014-Jul-26 09:33N 33°38' E 130°20'4 3.7
2014-Jul-26 08:33N 33°38' E 130°24'0 0.0
2014-Jul-26 07:33N 33°38' E 130°24'0 0.0
2014-Jul-26 06:32N 33°38' E 130°24'0 0.0
2014-Jul-26 05:33N 33°38' E 130°24'0 0.0
2014-Jul-26 04:33N 33°38' E 130°24'0 0.0
2014-Jul-26 03:33N 33°38' E 130°24'0 0.0
2014-Jul-26 02:32N 33°38' E 130°24'0 0.0
2014-Jul-26 01:33N 33°38' E 130°24'0 0.0
2014-Jul-26 00:33N 33°38' E 130°24'0 0.0
2014-Jul-25 23:33N 33°38' E 130°24'0 0.0
2014-Jul-25 22:32N 33°38' E 130°24'0 0.0
2014-Jul-25 21:32N 33°38' E 130°24'0 0.0
2014-Jul-25 20:32N 33°38' E 130°24'8 7.7
2014-Jul-25 19:34N 33°41' E 130°16'2019.1
2014-Jul-25 18:31N 33°58' E 130°28'39116.3
2014-Jul-24 18:33N 34°23' E 138°21'4019.8
2014-Jul-24 16:32N 34°39' E 139°05'2220.1
2014-Jul-24 15:26N 34°55' E 139°24'1820.7
2014-Jul-24 14:34N 35°05' E 139°42'1414.1
2014-Jul-24 13:33N 35°20' E 139°43'1817.7
2014-Jul-24 12:33N 35°36' E 139°50'2 1.9
2014-Jul-24 11:33N 35°37' E 139°48'0 0.0
2014-Jul-24 10:33N 35°37' E 139°48'0 0.0
2014-Jul-24 09:33N 35°37' E 139°48'0 0.0
2014-Jul-24 08:33N 35°37' E 139°48'0 0.0
2014-Jul-24 07:33N 35°37' E 139°48'0 0.0
2014-Jul-24 06:21N 35°37' E 139°48'0 0.0
2014-Jul-24 05:33N 35°37' E 139°48'0 0.0
2014-Jul-24 04:27N 35°37' E 139°48'0 0.0
2014-Jul-24 03:33N 35°37' E 139°48'0 0.0
2014-Jul-24 02:33N 35°37' E 139°48'0 0.0
2014-Jul-24 01:27N 35°37' E 139°48'0 0.0
2014-Jul-24 00:33N 35°37' E 139°48'0 0.0
2014-Jul-23 23:33N 35°37' E 139°48'0 0.0
2014-Jul-23 22:33N 35°37' E 139°48'0 0.0
2014-Jul-23 21:33N 35°37' E 139°48'0 0.0
2014-Jul-23 20:33N 35°37' E 139°48'6 6.4
2014-Jul-23 19:34N 35°32' E 139°52'1514.8
2014-Jul-23 18:33N 35°18' E 139°45'1514.7
2014-Jul-23 17:33N 35°03' E 139°44'2120.9
2014-Jul-23 16:33N 34°51' E 139°24'6220.0
2014-Jul-23 13:27N 34°18' E 138°19'16718.4
2014-Jul-23 04:22N 33°53' E 134°60'1620.2
2014-Jul-23 03:33N 34°10' E 134°58'2120.9
2014-Jul-23 02:33N 34°30' E 135°02'1515.2
2014-Jul-23 01:33N 34°34' E 134°44'10012.2
2014-Jul-22 17:19N 34°03' E 132°48'1621.1
2014-Jul-22 16:33N 33°51' E 132°35'11118.5
2014-Jul-22 10:33N 33°52' E 130°21'1514.8
2014-Jul-22 09:32N 33°37' E 130°24'0 0.5
2014-Jul-22 08:33N 33°38' E 130°24'0 0.0
2014-Jul-22 07:33N 33°38' E 130°24'0 0.0
2014-Jul-22 06:33N 33°38' E 130°24'0 0.0
2014-Jul-22 05:31N 33°38' E 130°24'0 0.0
2014-Jul-22 04:31N 33°38' E 130°24'0 0.0
2014-Jul-22 03:31N 33°38' E 130°24'0 0.0
2014-Jul-22 02:31N 33°38' E 130°24'0 0.0
2014-Jul-22 01:31N 33°38' E 130°24'0 0.0
2014-Jul-22 00:31N 33°38' E 130°24'0 0.0
2014-Jul-21 23:31N 33°38' E 130°24'0 0.1
2014-Jul-21 22:31N 33°37' E 130°24'0 0.0
2014-Jul-21 21:31N 33°37' E 130°24'0 0.0
2014-Jul-21 20:31N 33°37' E 130°24'0 0.0
2014-Jul-21 20:16N 33°37' E 130°24'0 0.0
2014-Jul-21 19:31N 33°37' E 130°24'0 0.0
2014-Jul-21 18:31N 33°37' E 130°24'0 0.0
2014-Jul-21 17:32N 33°37' E 130°24'0 0.0
2014-Jul-21 16:31N 33°37' E 130°24'0 0.0
2014-Jul-21 15:31N 33°37' E 130°24'0 0.0
2014-Jul-21 14:31N 33°37' E 130°24'0 0.0
2014-Jul-21 13:32N 33°37' E 130°24'0 0.0
2014-Jul-21 12:31N 33°37' E 130°24'0 0.0
2014-Jul-21 11:31N 33°37' E 130°24'0 0.0
2014-Jul-21 10:28N 33°37' E 130°24'0 0.0
2014-Jul-21 09:31N 33°37' E 130°24'0 0.0
2014-Jul-21 08:28N 33°37' E 130°24'0 0.0
2014-Jul-21 07:31N 33°37' E 130°24'0 0.0
2014-Jul-21 06:31N 33°37' E 130°24'0 0.0
2014-Jul-21 05:31N 33°37' E 130°24'0 0.0
2014-Jul-21 04:31N 33°37' E 130°24'0 0.0
2014-Jul-21 03:31N 33°37' E 130°24'0 0.0
2014-Jul-21 02:31N 33°37' E 130°24'0 0.0
2014-Jul-21 01:31N 33°37' E 130°24'0 0.0
2014-Jul-21 00:28N 33°37' E 130°24'0 0.0
2014-Jul-20 23:31N 33°37' E 130°24'0 0.0
2014-Jul-20 22:31N 33°37' E 130°24'0 0.0
2014-Jul-20 21:33N 33°37' E 130°24'0 0.0
2014-Jul-20 20:32N 33°37' E 130°24'8 7.9
2014-Jul-20 19:33N 33°41' E 130°16'2018.7
2014-Jul-20 18:29N 33°59' E 130°28'1819.9
2014-Jul-20 17:33N 34°02' E 130°50'37416.0
2014-Jul-19 18:14N 34°23' E 138°21'5118.7
2014-Jul-19 15:30N 34°48' E 139°15'1718.3
2014-Jul-19 14:33N 34°59' E 139°31'1918.8
2014-Jul-19 13:33N 35°14' E 139°46'1414.2
2014-Jul-19 12:33N 35°28' E 139°48'9 9.4
2014-Jul-19 11:33N 35°37' E 139°48'0 0.0
2014-Jul-19 10:34N 35°37' E 139°48'0 0.0
2014-Jul-19 09:33N 35°37' E 139°48'0 0.0
2014-Jul-19 08:24N 35°37' E 139°48'0 0.0
2014-Jul-19 07:27N 35°37' E 139°48'0 0.0
2014-Jul-19 06:30N 35°37' E 139°48'0 0.0
2014-Jul-19 05:33N 35°37' E 139°48'0 0.0
2014-Jul-19 04:33N 35°37' E 139°48'  

Dump ship's entire track history